createdAt,value
2023-05-22T00:00:13.727Z,1002.69
2023-05-22T00:01:13.434Z,1002.69
2023-05-22T00:02:13.506Z,1002.74
2023-05-22T00:03:13.455Z,1002.67
2023-05-22T00:04:13.555Z,1002.68
2023-05-22T00:05:13.496Z,1002.67
2023-05-22T00:06:13.389Z,1002.66
2023-05-22T00:07:13.368Z,1002.68
2023-05-22T00:08:13.378Z,1002.65
2023-05-22T00:09:13.347Z,1002.68
2023-05-22T00:10:13.410Z,1002.67
2023-05-22T00:11:13.326Z,1002.68
2023-05-22T00:12:13.338Z,1002.67
2023-05-22T00:13:13.307Z,1002.69
2023-05-22T00:14:13.340Z,1002.71
2023-05-22T00:15:13.272Z,1002.72
2023-05-22T00:16:13.271Z,1002.67
2023-05-22T00:17:13.320Z,1002.64
2023-05-22T00:18:13.309Z,1002.68
2023-05-22T00:19:13.564Z,1002.64
2023-05-22T00:20:13.248Z,1002.71
2023-05-22T00:21:13.223Z,1002.67
2023-05-22T00:22:13.202Z,1002.68
2023-05-22T00:23:15.424Z,1002.71
2023-05-22T00:24:13.202Z,1002.75
2023-05-22T00:25:13.180Z,1002.68
2023-05-22T00:26:13.183Z,1002.68
2023-05-22T00:27:13.146Z,1002.68
2023-05-22T00:28:13.129Z,1002.70
2023-05-22T00:29:13.146Z,1002.64
2023-05-22T00:30:13.154Z,1002.60
2023-05-22T00:31:13.118Z,1002.64
2023-05-22T00:32:13.089Z,1002.62
2023-05-22T00:33:13.081Z,1002.61
2023-05-22T00:34:13.148Z,1002.60
2023-05-22T00:35:13.076Z,1002.58
2023-05-22T00:36:13.091Z,1002.59
2023-05-22T00:37:13.055Z,1002.57
2023-05-22T00:38:13.065Z,1002.55
2023-05-22T00:39:13.024Z,1002.53
2023-05-22T00:40:13.007Z,1002.56
2023-05-22T00:41:12.989Z,1002.57
2023-05-22T00:42:13.034Z,1002.56
2023-05-22T00:43:12.993Z,1002.56
2023-05-22T00:44:12.971Z,1002.58
2023-05-22T00:45:13.025Z,1002.57
2023-05-22T00:46:12.986Z,1002.54
2023-05-22T00:47:12.948Z,1002.55
2023-05-22T00:48:12.925Z,1002.55
2023-05-22T00:49:12.928Z,1002.51
2023-05-22T00:50:12.917Z,1002.49
2023-05-22T00:51:12.901Z,1002.51
2023-05-22T00:52:12.892Z,1002.51
2023-05-22T00:53:12.865Z,1002.51
2023-05-22T00:54:12.868Z,1002.47
2023-05-22T00:55:12.864Z,1002.47
2023-05-22T00:56:12.828Z,1002.46
2023-05-22T00:57:12.829Z,1002.44
2023-05-22T00:58:12.846Z,1002.42
2023-05-22T00:59:12.826Z,1002.37
2023-05-22T01:00:12.832Z,1002.42
2023-05-22T01:01:12.800Z,1002.46
2023-05-22T01:02:12.865Z,1002.45
2023-05-22T01:03:12.894Z,1002.43
2023-05-22T01:04:12.802Z,1002.46
2023-05-22T01:05:12.762Z,1002.45
2023-05-22T01:06:12.736Z,1002.41
2023-05-22T01:07:12.703Z,1002.36
2023-05-22T01:08:12.708Z,1002.39
2023-05-22T01:09:12.693Z,1002.35
2023-05-22T01:10:12.698Z,1002.35
2023-05-22T01:11:12.669Z,1002.38
2023-05-22T01:12:13.137Z,1002.37
2023-05-22T01:13:12.679Z,1002.42
2023-05-22T01:14:12.648Z,1002.43
2023-05-22T01:15:12.628Z,1002.48
2023-05-22T01:16:12.644Z,1002.43
2023-05-22T01:17:12.607Z,1002.43
2023-05-22T01:18:12.719Z,1002.40
2023-05-22T01:19:12.669Z,1002.42
2023-05-22T01:20:12.566Z,1002.46
2023-05-22T01:21:12.566Z,1002.44
2023-05-22T01:22:12.574Z,1002.43
2023-05-22T01:23:12.529Z,1002.42
2023-05-22T01:24:12.543Z,1002.39
2023-05-22T01:25:12.507Z,1002.42
2023-05-22T01:26:12.509Z,1002.42
2023-05-22T01:27:12.492Z,1002.43
2023-05-22T01:28:12.501Z,1002.41
2023-05-22T01:29:12.487Z,1002.43
2023-05-22T01:30:12.482Z,1002.44
2023-05-22T01:31:12.442Z,1002.42
2023-05-22T01:32:12.436Z,1002.39
2023-05-22T01:33:12.508Z,1002.42
2023-05-22T01:34:12.413Z,1002.41
2023-05-22T01:35:12.420Z,1002.40
2023-05-22T01:36:12.412Z,1002.45
2023-05-22T01:37:12.371Z,1002.43
2023-05-22T01:38:12.461Z,1002.41
2023-05-22T01:39:12.369Z,1002.46
2023-05-22T01:40:12.358Z,1002.42
2023-05-22T01:41:12.361Z,1002.43
2023-05-22T01:42:12.320Z,1002.43
2023-05-22T01:43:12.336Z,1002.48
2023-05-22T01:44:12.331Z,1002.44
2023-05-22T01:45:12.360Z,1002.41
2023-05-22T01:46:12.479Z,1002.41
2023-05-22T01:47:12.264Z,1002.41
2023-05-22T01:48:12.264Z,1002.52
2023-05-22T01:49:12.248Z,1002.55
2023-05-22T01:50:12.265Z,1002.48
2023-05-22T01:51:12.230Z,1002.51
2023-05-22T01:52:12.280Z,1002.53
2023-05-22T01:53:12.247Z,1002.52
2023-05-22T01:54:12.199Z,1002.56
2023-05-22T01:55:12.207Z,1002.56
2023-05-22T01:56:12.204Z,1002.61
2023-05-22T01:57:12.356Z,1002.60
2023-05-22T01:58:12.169Z,1002.58
2023-05-22T01:59:12.134Z,1002.55
2023-05-22T02:00:12.124Z,1002.60
2023-05-22T02:01:12.176Z,1002.64
2023-05-22T02:02:12.159Z,1002.62
2023-05-22T02:03:12.297Z,1002.59
2023-05-22T02:04:12.104Z,1002.59
2023-05-22T02:05:12.072Z,1002.59
2023-05-22T02:06:12.057Z,1002.58
2023-05-22T02:07:12.624Z,1002.56
2023-05-22T02:08:12.049Z,1002.65
2023-05-22T02:09:12.045Z,1002.60
2023-05-22T02:10:12.013Z,1002.63
2023-05-22T02:11:12.018Z,1002.56
2023-05-22T02:12:12.001Z,1002.61
2023-05-22T02:13:12.003Z,1002.56
2023-05-22T02:14:12.010Z,1002.51
2023-05-22T02:15:11.961Z,1002.49
2023-05-22T02:16:12.024Z,1002.50
2023-05-22T02:17:11.933Z,1002.48
2023-05-22T02:18:12.114Z,1002.50
2023-05-22T02:19:11.969Z,1002.52
2023-05-22T02:20:11.902Z,1002.48
2023-05-22T02:21:11.907Z,1002.52
2023-05-22T02:22:11.878Z,1002.52
2023-05-22T02:23:11.866Z,1002.51
2023-05-22T02:24:11.860Z,1002.49
2023-05-22T02:25:11.870Z,1002.54
2023-05-22T02:26:11.855Z,1002.53
2023-05-22T02:27:11.849Z,1002.53
2023-05-22T02:28:11.848Z,1002.52
2023-05-22T02:29:11.848Z,1002.44
2023-05-22T02:30:11.810Z,1002.49
2023-05-22T02:31:11.809Z,1002.46
2023-05-22T02:32:11.783Z,1002.48
2023-05-22T02:33:11.812Z,1002.46
2023-05-22T02:34:11.764Z,1002.46
2023-05-22T02:35:11.746Z,1002.44
2023-05-22T02:36:11.733Z,1002.45
2023-05-22T02:37:11.747Z,1002.42
2023-05-22T02:38:11.731Z,1002.42
2023-05-22T02:39:11.712Z,1002.39
2023-05-22T02:40:11.704Z,1002.40
2023-05-22T02:41:11.668Z,1002.42
2023-05-22T02:42:11.664Z,1002.39
2023-05-22T02:43:11.675Z,1002.42
2023-05-22T02:44:11.661Z,1002.41
2023-05-22T02:45:11.635Z,1002.41
2023-05-22T02:46:11.671Z,1002.41
2023-05-22T02:47:11.602Z,1002.43
2023-05-22T02:48:11.622Z,1002.42
2023-05-22T02:49:11.584Z,1002.44
2023-05-22T02:50:11.595Z,1002.38
2023-05-22T02:51:11.598Z,1002.40
2023-05-22T02:52:11.544Z,1002.43
2023-05-22T02:53:11.563Z,1002.36
2023-05-22T02:54:11.523Z,1002.38
2023-05-22T02:55:11.519Z,1002.44
2023-05-22T02:56:11.562Z,1002.35
2023-05-22T02:57:11.513Z,1002.36
2023-05-22T02:58:11.506Z,1002.34
2023-05-22T02:59:11.476Z,1002.32
2023-05-22T03:00:11.495Z,1002.35
2023-05-22T03:01:19.147Z,1002.28
2023-05-22T03:02:11.458Z,1002.29
2023-05-22T03:03:11.522Z,1002.29
2023-05-22T03:04:11.451Z,1002.28
2023-05-22T03:05:11.411Z,1002.25
2023-05-22T03:06:11.413Z,1002.28
2023-05-22T03:07:11.406Z,1002.23
2023-05-22T03:08:11.371Z,1002.25
2023-05-22T03:09:11.374Z,1002.18
2023-05-22T03:10:11.361Z,1002.28
2023-05-22T03:11:11.388Z,1002.23
2023-05-22T03:12:11.335Z,1002.23
2023-05-22T03:13:11.336Z,1002.17
2023-05-22T03:14:11.301Z,1002.18
2023-05-22T03:15:11.323Z,1002.17
2023-05-22T03:16:11.302Z,1002.21
2023-05-22T03:17:11.296Z,1002.18
2023-05-22T03:18:11.499Z,1002.21
2023-05-22T03:19:11.319Z,1002.16
2023-05-22T03:20:11.236Z,1002.16
2023-05-22T03:21:11.226Z,1002.21
2023-05-22T03:22:11.249Z,1002.14
2023-05-22T03:23:11.231Z,1002.18
2023-05-22T03:24:11.221Z,1002.16
2023-05-22T03:25:11.199Z,1002.15
2023-05-22T03:26:11.185Z,1002.15
2023-05-22T03:27:11.158Z,1002.16
2023-05-22T03:28:11.180Z,1002.20
2023-05-22T03:29:11.185Z,1002.20
2023-05-22T03:30:11.144Z,1002.20
2023-05-22T03:31:11.139Z,1002.22
2023-05-22T03:32:11.106Z,1002.21
2023-05-22T03:33:11.159Z,1002.22
2023-05-22T03:34:11.205Z,1002.18
2023-05-22T03:35:11.081Z,1002.19
2023-05-22T03:36:11.085Z,1002.20
2023-05-22T03:37:11.071Z,1002.22
2023-05-22T03:38:11.068Z,1002.20
2023-05-22T03:39:11.042Z,1002.23
2023-05-22T03:40:11.043Z,1002.22
2023-05-22T03:41:11.032Z,1002.21
2023-05-22T03:42:11.027Z,1002.19
2023-05-22T03:43:10.992Z,1002.22
2023-05-22T03:44:10.980Z,1002.20
2023-05-22T03:45:10.964Z,1002.19
2023-05-22T03:46:11.062Z,1002.23
2023-05-22T03:47:10.959Z,1002.26
2023-05-22T03:48:11.105Z,1002.25
2023-05-22T03:49:10.918Z,1002.24
2023-05-22T03:50:10.912Z,1002.23
2023-05-22T03:51:10.953Z,1002.18
2023-05-22T03:52:10.907Z,1002.25
2023-05-22T03:53:10.887Z,1002.27
2023-05-22T03:54:10.880Z,1002.23
2023-05-22T03:55:10.880Z,1002.19
2023-05-22T03:56:10.870Z,1002.14
2023-05-22T03:57:10.844Z,1002.25
2023-05-22T03:58:10.819Z,1002.16
2023-05-22T03:59:10.838Z,1002.19
2023-05-22T04:00:10.800Z,1002.16
2023-05-22T04:01:10.782Z,1002.21
2023-05-22T04:02:10.784Z,1002.18
2023-05-22T04:03:10.860Z,1002.19
2023-05-22T04:04:10.763Z,1002.20
2023-05-22T04:05:10.786Z,1002.15
2023-05-22T04:06:10.738Z,1002.17
2023-05-22T04:07:10.719Z,1002.13
2023-05-22T04:08:10.705Z,1002.18
2023-05-22T04:09:10.738Z,1002.10
2023-05-22T04:10:10.746Z,1002.15
2023-05-22T04:11:10.685Z,1002.10
2023-05-22T04:12:10.700Z,1002.10
2023-05-22T04:13:10.651Z,1002.15
2023-05-22T04:14:11.653Z,1002.12
2023-05-22T04:15:10.624Z,1002.13
2023-05-22T04:16:10.752Z,1002.11
2023-05-22T04:17:10.633Z,1002.11
2023-05-22T04:18:10.649Z,1002.07
2023-05-22T04:19:10.629Z,1002.10
2023-05-22T04:20:10.579Z,1002.09
2023-05-22T04:21:10.623Z,1002.11
2023-05-22T04:22:10.556Z,1002.07
2023-05-22T04:23:10.550Z,1002.13
2023-05-22T04:24:10.539Z,1002.11
2023-05-22T04:25:10.533Z,1002.11
2023-05-22T04:26:10.548Z,1002.11
2023-05-22T04:27:10.560Z,1002.09
2023-05-22T04:28:10.509Z,1002.08
2023-05-22T04:29:10.554Z,1002.10
2023-05-22T04:30:10.568Z,1002.14
2023-05-22T04:31:10.527Z,1002.12
2023-05-22T04:32:10.474Z,1002.11
2023-05-22T04:33:10.514Z,1002.14
2023-05-22T04:34:10.444Z,1002.12
2023-05-22T04:35:10.415Z,1002.15
2023-05-22T04:36:12.455Z,1002.16
2023-05-22T04:37:10.415Z,1002.19
2023-05-22T04:38:10.393Z,1002.19
2023-05-22T04:39:10.401Z,1002.17
2023-05-22T04:40:10.413Z,1002.19
2023-05-22T04:41:10.341Z,1002.23
2023-05-22T04:42:10.374Z,1002.22
2023-05-22T04:43:10.333Z,1002.24
2023-05-22T04:44:10.307Z,1002.21
2023-05-22T04:45:10.353Z,1002.17
2023-05-22T04:46:10.464Z,1002.22
2023-05-22T04:47:10.336Z,1002.21
2023-05-22T04:48:10.269Z,1002.20
2023-05-22T04:49:10.262Z,1002.25
2023-05-22T04:50:10.242Z,1002.27
2023-05-22T04:51:10.300Z,1002.22
2023-05-22T04:52:10.216Z,1002.23
2023-05-22T04:53:10.215Z,1002.24
2023-05-22T04:54:10.203Z,1002.20
2023-05-22T04:55:10.206Z,1002.25
2023-05-22T04:56:11.785Z,1002.22
2023-05-22T04:57:10.232Z,1002.18
2023-05-22T04:58:10.178Z,1002.16
2023-05-22T04:59:11.052Z,1002.14
2023-05-22T05:00:10.132Z,1002.15
2023-05-22T05:01:10.181Z,1002.19
2023-05-22T05:02:10.114Z,1002.20
2023-05-22T05:03:10.216Z,1002.19
2023-05-22T05:04:10.141Z,1002.16
2023-05-22T05:05:10.090Z,1002.14
2023-05-22T05:06:10.062Z,1002.15
2023-05-22T05:07:10.051Z,1002.13
2023-05-22T05:08:10.056Z,1002.13
2023-05-22T05:09:10.057Z,1002.12
2023-05-22T05:10:10.035Z,1002.16
2023-05-22T05:11:10.004Z,1002.15
2023-05-22T05:12:10.018Z,1002.19
2023-05-22T05:13:10.033Z,1002.12
2023-05-22T05:14:10.002Z,1002.10
2023-05-22T05:15:09.963Z,1002.15
2023-05-22T05:16:10.050Z,1002.12
2023-05-22T05:17:09.942Z,1002.11
2023-05-22T05:18:10.057Z,1002.12
2023-05-22T05:19:10.002Z,1002.09
2023-05-22T05:20:09.910Z,1002.09
2023-05-22T05:21:09.916Z,1002.11
2023-05-22T05:22:10.525Z,1002.18
2023-05-22T05:23:09.892Z,1002.18
2023-05-22T05:24:09.875Z,1002.10
2023-05-22T05:25:11.672Z,1002.12
2023-05-22T05:26:09.856Z,1002.14
2023-05-22T05:27:09.845Z,1002.19
2023-05-22T05:28:09.834Z,1002.16
2023-05-22T05:29:09.807Z,1002.22
2023-05-22T05:30:09.833Z,1002.16
2023-05-22T05:31:09.809Z,1002.20
2023-05-22T05:32:09.853Z,1002.14
2023-05-22T05:33:09.883Z,1002.20
2023-05-22T05:34:09.762Z,1002.15
2023-05-22T05:35:09.789Z,1002.18
2023-05-22T05:36:09.742Z,1002.16
2023-05-22T05:37:09.733Z,1002.15
2023-05-22T05:38:09.710Z,1002.13
2023-05-22T05:39:09.700Z,1002.17
2023-05-22T05:40:09.689Z,1002.15
2023-05-22T05:41:09.700Z,1002.15
2023-05-22T05:42:09.810Z,1002.17
2023-05-22T05:43:09.694Z,1002.17
2023-05-22T05:44:09.659Z,1002.19
2023-05-22T05:45:09.652Z,1002.25
2023-05-22T05:46:09.733Z,1002.19
2023-05-22T05:47:09.646Z,1002.22
2023-05-22T05:48:09.662Z,1002.25
2023-05-22T05:49:09.656Z,1002.21
2023-05-22T05:50:09.578Z,1002.20
2023-05-22T05:51:09.582Z,1002.22
2023-05-22T05:52:09.559Z,1002.20
2023-05-22T05:53:09.571Z,1002.19
2023-05-22T05:54:09.558Z,1002.23
2023-05-22T05:55:09.558Z,1002.21
2023-05-22T05:56:09.540Z,1002.25
2023-05-22T05:57:09.509Z,1002.25
2023-05-22T05:58:09.490Z,1002.18
2023-05-22T05:59:09.482Z,1002.19
2023-05-22T06:00:09.477Z,1002.21
2023-05-22T06:01:09.492Z,1002.24
2023-05-22T06:02:09.729Z,1002.23
2023-05-22T06:03:09.534Z,1002.23
2023-05-22T06:04:09.440Z,1002.21
2023-05-22T06:05:09.505Z,1002.21
2023-05-22T06:06:09.411Z,1002.23
2023-05-22T06:07:09.416Z,1002.19
2023-05-22T06:08:09.417Z,1002.24
2023-05-22T06:09:09.373Z,1002.27
2023-05-22T06:10:09.484Z,1002.21
2023-05-22T06:11:09.351Z,1002.26
2023-05-22T06:12:09.345Z,1002.26
2023-05-22T06:13:09.361Z,1002.22
2023-05-22T06:14:09.344Z,1002.21
2023-05-22T06:15:09.312Z,1002.27
2023-05-22T06:16:09.328Z,1002.22
2023-05-22T06:17:09.308Z,1002.26
2023-05-22T06:18:09.366Z,1002.20
2023-05-22T06:19:09.308Z,1002.18
2023-05-22T06:20:09.327Z,1002.19
2023-05-22T06:21:09.244Z,1002.20
2023-05-22T06:22:09.252Z,1002.16
2023-05-22T06:23:09.227Z,1002.16
2023-05-22T06:24:09.223Z,1002.13
2023-05-22T06:25:09.201Z,1002.16
2023-05-22T06:26:09.211Z,1002.22
2023-05-22T06:27:09.183Z,1002.18
2023-05-22T06:28:09.182Z,1002.17
2023-05-22T06:29:09.167Z,1002.17
2023-05-22T06:30:09.174Z,1002.10
2023-05-22T06:31:09.141Z,1002.17
2023-05-22T06:32:09.169Z,1002.17
2023-05-22T06:33:09.184Z,1002.19
2023-05-22T06:34:09.450Z,1002.07
2023-05-22T06:35:09.101Z,1002.09
2023-05-22T06:36:09.114Z,1002.07
2023-05-22T06:37:09.086Z,1002.09
2023-05-22T06:38:09.056Z,1002.09
2023-05-22T06:39:16.657Z,1002.07
2023-05-22T06:40:09.038Z,1002.07
2023-05-22T06:41:09.038Z,1002.08
2023-05-22T06:42:09.075Z,1002.09
2023-05-22T06:43:09.000Z,1002.09
2023-05-22T06:44:08.986Z,1002.05
2023-05-22T06:45:08.992Z,1002.05
2023-05-22T06:46:08.993Z,1002.09
2023-05-22T06:47:08.979Z,1002.06
2023-05-22T06:48:09.035Z,1002.03
2023-05-22T06:49:08.933Z,1002.01
2023-05-22T06:50:08.954Z,1001.97
2023-05-22T06:51:08.940Z,1002.02
2023-05-22T06:52:08.909Z,1002.05
2023-05-22T06:53:08.919Z,1002.00
2023-05-22T06:54:08.883Z,1002.07
2023-05-22T06:55:08.869Z,1002.07
2023-05-22T06:56:08.953Z,1002.08
2023-05-22T06:57:08.840Z,1002.03
2023-05-22T06:58:08.844Z,1002.07
2023-05-22T06:59:08.950Z,1002.04
2023-05-22T07:00:08.848Z,1002.02
2023-05-22T07:01:08.855Z,1002.09
2023-05-22T07:02:08.792Z,1002.07
2023-05-22T07:03:08.857Z,1001.99
2023-05-22T07:04:08.779Z,1002.01
2023-05-22T07:05:08.789Z,1002.04
2023-05-22T07:06:08.949Z,1002.04
2023-05-22T07:07:08.737Z,1002.06
2023-05-22T07:08:08.741Z,1001.99
2023-05-22T07:09:08.724Z,1001.96
2023-05-22T07:10:08.742Z,1001.99
2023-05-22T07:11:08.715Z,1001.99
2023-05-22T07:12:08.677Z,1002.00
2023-05-22T07:13:08.690Z,1001.96
2023-05-22T07:14:08.702Z,1001.98
2023-05-22T07:15:08.687Z,1001.94
2023-05-22T07:16:08.683Z,1001.98
2023-05-22T07:17:08.622Z,1001.94
2023-05-22T07:18:08.666Z,1001.98
2023-05-22T07:19:08.647Z,1002.01
2023-05-22T07:20:08.620Z,1002.02
2023-05-22T07:21:08.598Z,1001.96
2023-05-22T07:22:08.618Z,1001.93
2023-05-22T07:23:08.560Z,1002.00
2023-05-22T07:24:08.622Z,1001.99
2023-05-22T07:25:08.550Z,1001.98
2023-05-22T07:26:08.565Z,1001.98
2023-05-22T07:27:08.531Z,1001.99
2023-05-22T07:28:08.536Z,1002.00
2023-05-22T07:29:08.557Z,1002.05
2023-05-22T07:30:08.488Z,1002.04
2023-05-22T07:31:08.558Z,1002.01
2023-05-22T07:32:08.461Z,1002.02
2023-05-22T07:33:08.497Z,1002.00
2023-05-22T07:34:08.437Z,1001.99
2023-05-22T07:35:08.482Z,1001.97
2023-05-22T07:36:08.420Z,1001.98
2023-05-22T07:37:08.425Z,1001.99
2023-05-22T07:38:08.423Z,1001.99
2023-05-22T07:39:08.408Z,1002.02
2023-05-22T07:40:08.378Z,1001.98
2023-05-22T07:41:08.428Z,1001.98
2023-05-22T07:42:08.380Z,1001.99
2023-05-22T07:43:08.353Z,1002.02
2023-05-22T07:44:08.356Z,1001.96
2023-05-22T07:45:08.331Z,1002.00
2023-05-22T07:46:08.341Z,1001.98
2023-05-22T07:47:08.403Z,1002.05
2023-05-22T07:48:08.322Z,1002.02
2023-05-22T07:49:08.283Z,1002.00
2023-05-22T07:50:08.271Z,1001.97
2023-05-22T07:51:08.273Z,1001.96
2023-05-22T07:52:08.242Z,1001.98
2023-05-22T07:53:08.290Z,1002.04
2023-05-22T07:54:08.322Z,1001.98
2023-05-22T07:55:08.225Z,1001.96
2023-05-22T07:56:08.212Z,1001.95
2023-05-22T07:57:08.223Z,1001.95
2023-05-22T07:58:08.198Z,1002.04
2023-05-22T07:59:08.169Z,1001.96
2023-05-22T08:00:08.174Z,1002.02
2023-05-22T08:01:09.620Z,1002.02
2023-05-22T08:02:08.190Z,1002.02
2023-05-22T08:03:08.224Z,1002.00
2023-05-22T08:04:08.423Z,1002.08
2023-05-22T08:05:08.146Z,1002.01
2023-05-22T08:06:08.092Z,1002.04
2023-05-22T08:07:08.077Z,1002.04
2023-05-22T08:08:08.086Z,1002.02
2023-05-22T08:09:08.103Z,1001.96
2023-05-22T08:10:08.074Z,1001.97
2023-05-22T08:11:08.212Z,1001.97
2023-05-22T08:12:08.063Z,1001.97
2023-05-22T08:13:08.015Z,1001.93
2023-05-22T08:14:08.016Z,1001.95
2023-05-22T08:15:08.024Z,1001.97
2023-05-22T08:16:07.970Z,1001.99
2023-05-22T08:17:08.067Z,1002.03
2023-05-22T08:18:08.039Z,1002.03
2023-05-22T08:19:08.075Z,1002.01
2023-05-22T08:20:08.123Z,1001.98
2023-05-22T08:21:07.915Z,1002.01
2023-05-22T08:22:07.909Z,1001.98
2023-05-22T08:23:07.938Z,1001.97
2023-05-22T08:24:07.903Z,1002.04
2023-05-22T08:25:07.885Z,1002.01
2023-05-22T08:26:07.931Z,1001.96
2023-05-22T08:27:07.853Z,1001.94
2023-05-22T08:28:07.859Z,1001.97
2023-05-22T08:29:07.873Z,1001.95
2023-05-22T08:30:07.843Z,1001.92
2023-05-22T08:31:07.857Z,1001.92
2023-05-22T08:32:07.888Z,1001.94
2023-05-22T08:33:07.889Z,1001.93
2023-05-22T08:34:07.824Z,1001.91
2023-05-22T08:35:07.796Z,1001.94
2023-05-22T08:36:07.774Z,1001.89
2023-05-22T08:37:07.776Z,1001.86
2023-05-22T08:38:07.778Z,1001.91
2023-05-22T08:39:07.731Z,1001.93
2023-05-22T08:40:07.750Z,1001.86
2023-05-22T08:41:07.727Z,1001.91
2023-05-22T08:42:08.014Z,1001.85
2023-05-22T08:43:07.690Z,1001.86
2023-05-22T08:44:07.704Z,1001.88
2023-05-22T08:45:07.653Z,1001.82
2023-05-22T08:46:07.649Z,1001.82
2023-05-22T08:47:07.784Z,1001.81
2023-05-22T08:48:07.729Z,1001.85
2023-05-22T08:49:07.621Z,1001.88
2023-05-22T08:50:07.612Z,1001.80
2023-05-22T08:51:07.622Z,1001.87
2023-05-22T08:52:07.580Z,1001.85
2023-05-22T08:53:07.579Z,1001.77
2023-05-22T08:54:07.648Z,1001.79
2023-05-22T08:55:07.561Z,1001.80
2023-05-22T08:56:07.576Z,1001.73
2023-05-22T08:57:07.528Z,1001.72
2023-05-22T08:58:07.665Z,1001.72
2023-05-22T08:59:07.536Z,1001.73
2023-05-22T09:00:07.491Z,1001.71
2023-05-22T09:01:07.538Z,1001.71
2023-05-22T09:02:07.467Z,1001.68
2023-05-22T09:03:07.715Z,1001.64
2023-05-22T09:04:07.481Z,1001.64
2023-05-22T09:05:07.441Z,1001.62
2023-05-22T09:06:07.446Z,1001.60
2023-05-22T09:07:07.436Z,1001.64
2023-05-22T09:08:19.086Z,1001.60
2023-05-22T09:09:08.418Z,1001.56
2023-05-22T09:10:07.403Z,1001.58
2023-05-22T09:11:07.372Z,1001.57
2023-05-22T09:12:07.378Z,1001.51
2023-05-22T09:13:07.354Z,1001.55
2023-05-22T09:14:07.382Z,1001.55
2023-05-22T09:15:07.332Z,1001.54
2023-05-22T09:16:07.346Z,1001.62
2023-05-22T09:17:07.431Z,1001.56
2023-05-22T09:18:07.384Z,1001.52
2023-05-22T09:19:07.332Z,1001.56
2023-05-22T09:20:07.286Z,1001.52
2023-05-22T09:21:17.772Z,1001.53
2023-05-22T09:22:08.258Z,1001.52
2023-05-22T09:23:07.249Z,1001.49
2023-05-22T09:24:07.246Z,1001.45
2023-05-22T09:25:07.268Z,1001.46
2023-05-22T09:26:07.213Z,1001.47
2023-05-22T09:27:07.227Z,1001.40
2023-05-22T09:28:07.184Z,1001.50
2023-05-22T09:29:07.175Z,1001.42
2023-05-22T09:30:07.191Z,1001.45
2023-05-22T09:31:07.212Z,1001.36
2023-05-22T09:32:07.151Z,1001.39
2023-05-22T09:33:07.156Z,1001.39
2023-05-22T09:34:07.129Z,1001.37
2023-05-22T09:35:07.127Z,1001.40
2023-05-22T09:36:07.100Z,1001.36
2023-05-22T09:37:07.147Z,1001.36
2023-05-22T09:38:07.077Z,1001.33
2023-05-22T09:39:07.075Z,1001.32
2023-05-22T09:40:07.068Z,1001.31
2023-05-22T09:41:07.065Z,1001.33
2023-05-22T09:42:07.039Z,1001.36
2023-05-22T09:43:07.039Z,1001.37
2023-05-22T09:44:07.006Z,1001.33
2023-05-22T09:45:07.014Z,1001.36
2023-05-22T09:46:07.103Z,1001.34
2023-05-22T09:47:07.016Z,1001.35
2023-05-22T09:48:07.155Z,1001.37
2023-05-22T09:49:06.970Z,1001.39
2023-05-22T09:50:06.946Z,1001.43
2023-05-22T09:51:06.929Z,1001.42
2023-05-22T09:52:06.939Z,1001.41
2023-05-22T09:53:06.944Z,1001.42
2023-05-22T09:54:06.922Z,1001.41
2023-05-22T09:55:06.965Z,1001.42
2023-05-22T09:56:06.889Z,1001.43
2023-05-22T09:57:06.890Z,1001.46
2023-05-22T09:58:06.904Z,1001.43
2023-05-22T09:59:06.884Z,1001.39
2023-05-22T10:00:06.850Z,1001.39
2023-05-22T10:01:06.825Z,1001.42
2023-05-22T10:02:06.963Z,1001.37
2023-05-22T10:03:06.814Z,1001.42
2023-05-22T10:04:06.969Z,1001.36
2023-05-22T10:05:06.853Z,1001.35
2023-05-22T10:06:06.776Z,1001.39
2023-05-22T10:07:06.759Z,1001.40
2023-05-22T10:08:06.759Z,1001.38
2023-05-22T10:09:06.747Z,1001.31
2023-05-22T10:10:06.752Z,1001.35
2023-05-22T10:11:06.761Z,1001.32
2023-05-22T10:12:06.708Z,1001.24
2023-05-22T10:13:06.689Z,1001.31
2023-05-22T10:14:06.699Z,1001.26
2023-05-22T10:15:06.694Z,1001.29
2023-05-22T10:16:06.694Z,1001.25
2023-05-22T10:17:06.740Z,1001.32
2023-05-22T10:18:06.823Z,1001.19
2023-05-22T10:19:06.732Z,1001.22
2023-05-22T10:20:06.613Z,1001.21
2023-05-22T10:21:06.640Z,1001.21
2023-05-22T10:22:06.716Z,1001.22
2023-05-22T10:23:06.604Z,1001.23
2023-05-22T10:24:06.582Z,1001.25
2023-05-22T10:25:08.500Z,1001.20
2023-05-22T10:26:06.558Z,1001.22
2023-05-22T10:27:06.551Z,1001.23
2023-05-22T10:28:06.559Z,1001.19
2023-05-22T10:29:06.530Z,1001.18
2023-05-22T10:30:06.508Z,1001.18
2023-05-22T10:31:06.501Z,1001.16
2023-05-22T10:32:06.492Z,1001.07
2023-05-22T10:33:06.574Z,1001.04
2023-05-22T10:34:06.734Z,1001.07
2023-05-22T10:35:06.457Z,1001.10
2023-05-22T10:36:06.443Z,1001.00
2023-05-22T10:37:16.445Z,1001.04
2023-05-22T10:38:07.443Z,1001.03
2023-05-22T10:39:06.441Z,1001.08
2023-05-22T10:40:06.415Z,1001.00
2023-05-22T10:41:06.433Z,1001.04
2023-05-22T10:42:06.402Z,1001.08
2023-05-22T10:43:06.377Z,1001.01
2023-05-22T10:44:06.358Z,1001.02
2023-05-22T10:45:06.359Z,1000.99
2023-05-22T10:46:06.387Z,1000.94
2023-05-22T10:47:06.328Z,1001.00
2023-05-22T10:48:06.440Z,1000.98
2023-05-22T10:49:06.341Z,1000.99
2023-05-22T10:50:06.411Z,1001.07
2023-05-22T10:51:06.307Z,1000.92
2023-05-22T10:52:06.267Z,1000.94
2023-05-22T10:53:06.262Z,1000.93
2023-05-22T10:54:06.264Z,1000.93
2023-05-22T10:55:06.262Z,1000.94
2023-05-22T10:56:06.244Z,1000.89
2023-05-22T10:57:06.238Z,1000.94
2023-05-22T10:58:06.203Z,1000.91
2023-05-22T10:59:06.197Z,1000.90
2023-05-22T11:00:06.195Z,1000.87
2023-05-22T11:01:06.203Z,1000.86
2023-05-22T11:02:06.235Z,1000.90
2023-05-22T11:03:17.281Z,1000.92
2023-05-22T11:04:07.197Z,1000.90
2023-05-22T11:05:06.203Z,1000.84
2023-05-22T11:06:06.254Z,1000.93
2023-05-22T11:07:06.114Z,1000.94
2023-05-22T11:08:06.126Z,1000.98
2023-05-22T11:09:06.116Z,1000.86
2023-05-22T11:10:06.133Z,1000.90
2023-05-22T11:11:06.086Z,1000.90
2023-05-22T11:12:06.103Z,1000.89
2023-05-22T11:13:06.066Z,1000.90
2023-05-22T11:14:06.068Z,1000.87
2023-05-22T11:15:06.022Z,1000.89
2023-05-22T11:16:06.039Z,1000.88
2023-05-22T11:17:06.043Z,1000.86
2023-05-22T11:18:06.049Z,1000.91
2023-05-22T11:19:21.267Z,1000.81
2023-05-22T11:20:07.228Z,1000.86
2023-05-22T11:21:05.953Z,1000.82
2023-05-22T11:22:06.072Z,1000.82
2023-05-22T11:23:05.969Z,1000.84
2023-05-22T11:24:05.942Z,1000.88
2023-05-22T11:25:05.963Z,1000.84
2023-05-22T11:26:05.940Z,1000.81
2023-05-22T11:27:05.936Z,1000.82
2023-05-22T11:28:05.892Z,1000.79
2023-05-22T11:29:05.877Z,1000.84
2023-05-22T11:30:05.863Z,1000.87
2023-05-22T11:31:05.917Z,1000.81
2023-05-22T11:32:05.844Z,1000.89
2023-05-22T11:33:05.908Z,1000.76
2023-05-22T11:34:05.825Z,1000.78
2023-05-22T11:35:05.834Z,1000.80
2023-05-22T11:36:05.845Z,1000.68
2023-05-22T11:37:05.805Z,1000.73
2023-05-22T11:38:05.943Z,1000.68
2023-05-22T11:39:05.759Z,1000.79
2023-05-22T11:40:05.754Z,1000.73
2023-05-22T11:41:05.772Z,1000.63
2023-05-22T11:42:05.738Z,1000.72
2023-05-22T11:43:05.749Z,1000.70
2023-05-22T11:44:05.712Z,1000.70
2023-05-22T11:45:05.690Z,1000.64
2023-05-22T11:46:05.714Z,1000.66
2023-05-22T11:47:05.691Z,1000.71
2023-05-22T11:48:05.722Z,1000.71
2023-05-22T11:49:05.670Z,1000.62
2023-05-22T11:50:05.659Z,1000.64
2023-05-22T11:51:05.662Z,1000.56
2023-05-22T11:52:05.626Z,1000.53
2023-05-22T11:53:05.630Z,1000.52
2023-05-22T11:54:05.738Z,1000.60
2023-05-22T11:55:05.703Z,1000.56
2023-05-22T11:56:05.591Z,1000.49
2023-05-22T11:57:05.610Z,1000.55
2023-05-22T11:58:05.574Z,1000.49
2023-05-22T11:59:05.562Z,1000.50
2023-05-22T12:00:05.573Z,1000.52
2023-05-22T12:01:05.533Z,1000.53
2023-05-22T12:02:05.510Z,1000.49
2023-05-22T12:03:05.565Z,1000.44
2023-05-22T12:04:05.582Z,1000.59
2023-05-22T12:05:05.482Z,1000.47